Time;durP1;ratioP1;P1;durP2;ratioP2;P2;SDS_P1;SDS_P2;PMS_P1;PMS_P2;Temp;Humidity;BMP_temperature;BMP_pressure;BME280_temperature;BME280_humidity;BME280_pressure;Samples;Min_cycle;Max_cycle;Signal;HPM_P1;HPM_P2
2022/06/27 00:00:29;;;;;;;4.10;2.25;;;;;;;19.13;99.88;157327.22;5007703;28;20509;-78
2022/06/27 00:02:55;;;;;;;3.35;2.42;;;;;;;19.12;100.00;157324.69;5013425;28;20617;-81
2022/06/27 00:05:21;;;;;;;4.93;2.10;;;;;;;19.08;100.00;157314.38;5023719;28;20041;-78
2022/06/27 00:07:46;;;;;;;4.30;2.45;;;;;;;19.04;100.00;157304.03;5023203;28;20627;-79
2022/06/27 00:10:12;;;;;;;3.00;2.45;;;;;;;19.14;100.00;157328.56;5012286;28;20052;-79
2022/06/27 00:12:39;;;;;;;2.53;2.33;;;;;;;19.10;100.00;157318.22;5011615;28;20497;-79
2022/06/27 00:15:06;;;;;;;4.90;2.40;;;;;;;18.96;100.00;157284.69;5024067;28;20029;-79
2022/06/27 00:17:32;;;;;;;4.25;2.30;;;;;;;19.05;100.00;157307.91;5024442;28;20076;-80
2022/06/27 00:19:58;;;;;;;4.40;2.80;;;;;;;19.04;100.00;157305.34;4997169;28;20504;-79
2022/06/27 00:22:25;;;;;;;4.18;3.00;;;;;;;19.11;100.00;157322.09;5019974;28;20092;-81
2022/06/27 00:24:50;;;;;;;4.72;2.53;;;;;;;19.08;100.00;157314.38;5005241;28;20035;-82
2022/06/27 00:27:16;;;;;;;3.88;2.50;;;;;;;19.03;100.00;157301.47;4995083;28;20428;-81
2022/06/27 00:29:42;;;;;;;2.65;2.45;;;;;;;19.09;100.00;157315.66;5022466;28;20047;-76
2022/06/27 00:32:08;;;;;;;6.80;2.50;;;;;;;19.06;100.00;157309.19;5034563;28;20474;-79
2022/06/27 00:34:36;;;;;;;7.53;3.00;;;;;;;19.03;100.00;157302.75;5020595;28;20068;-80
2022/06/27 00:37:01;;;;;;;3.17;2.20;;;;;;;18.93;100.00;157275.66;5018532;28;20140;-79
2022/06/27 00:39:27;;;;;;;7.63;2.67;;;;;;;18.93;100.00;157275.66;5012066;28;20044;-79
2022/06/27 00:41:53;;;;;;;6.38;2.00;;;;;;;18.95;100.00;157282.13;5033930;28;20045;-81
2022/06/27 00:44:33;;;;;;;4.47;2.55;;;;;;;18.88;100.00;157262.78;5016058;28;20482;-78
2022/06/27 00:46:59;;;;;;;3.75;2.38;;;;;;;18.84;100.00;157253.75;5013539;28;20572;-80
2022/06/27 00:49:25;;;;;;;2.53;1.92;;;;;;;18.92;100.00;157274.38;5012062;28;20041;-81
2022/06/27 00:51:51;;;;;;;2.88;2.35;;;;;;;18.96;100.00;157283.41;5023253;28;20040;-81
2022/06/27 00:54:17;;;;;;;6.70;2.63;;;;;;;18.83;100.00;157251.16;4991259;28;20024;-81
2022/06/27 00:56:43;;;;;;;7.10;2.45;;;;;;;18.83;100.00;157251.16;5013557;28;20131;-76
2022/06/27 00:59:08;;;;;;;4.28;2.03;;;;;;;18.77;100.00;157236.94;5014922;28;20115;-78
2022/06/27 01:01:34;;;;;;;3.17;2.17;;;;;;;18.82;100.00;157248.63;5010239;28;20544;-83
2022/06/27 01:04:01;;;;;;;4.43;2.20;;;;;;;18.84;100.00;157255.03;5033495;28;20040;-78
2022/06/27 01:06:29;;;;;;;2.63;2.30;;;;;;;18.88;100.00;157262.78;5014727;28;20037;-80
2022/06/27 01:08:55;;;;;;;4.68;2.72;;;;;;;18.88;100.00;157262.78;5001475;28;20958;-82
2022/06/27 01:11:21;;;;;;;4.70;2.47;;;;;;;18.84;100.00;157253.75;5002099;28;20048;-82
2022/06/27 01:13:49;;;;;;;1.90;1.80;;;;;;;18.81;100.00;157247.28;5015755;28;20552;-80
2022/06/27 01:16:15;;;;;;;2.55;2.17;;;;;;;18.83;100.00;157251.16;5000647;28;20845;-81
2022/06/27 01:18:41;;;;;;;2.80;2.50;;;;;;;18.81;100.00;157246.00;5012603;28;20115;-84
2022/06/27 01:21:07;;;;;;;4.65;2.50;;;;;;;18.73;100.00;157225.34;5015224;28;20029;-80
2022/06/27 01:23:37;;;;;;;6.85;2.50;;;;;;;18.77;100.00;157236.94;5012952;28;20048;-78
2022/06/27 01:26:03;;;;;;;2.95;2.00;;;;;;;18.76;100.00;157233.06;4999795;28;20036;-78
2022/06/27 01:28:29;;;;;;;3.45;2.17;;;;;;;18.74;100.00;157229.22;5027981;28;20053;-79
2022/06/27 01:30:56;;;;;;;4.57;2.50;;;;;;;18.75;100.00;157230.50;5017891;28;20040;-78
2022/06/27 01:33:22;;;;;;;3.15;2.30;;;;;;;18.87;100.00;157261.47;5013596;28;20124;-79
2022/06/27 01:36:41;;;;;;;4.03;2.30;;;;;;;18.97;100.00;157286.00;4994952;28;20120;-79
2022/06/27 01:38:35;;;;;;;4.43;2.40;;;;;;;18.81;100.00;157247.28;5027029;28;20498;-80
2022/06/27 01:41:00;;;;;;;3.92;2.35;;;;;;;18.74;100.00;157229.22;4997989;28;20051;-79
2022/06/27 01:43:26;;;;;;;6.25;2.20;;;;;;;18.70;100.00;157218.88;5015601;28;20033;-80
2022/06/27 01:45:52;;;;;;;4.65;2.33;;;;;;;18.74;100.00;157227.91;5031409;28;20124;-79
2022/06/27 01:48:17;;;;;;;3.80;2.50;;;;;;;18.72;100.00;157222.75;5018508;28;20056;-80
2022/06/27 01:50:49;;;;;;;2.97;2.10;;;;;;;18.75;100.00;157231.78;5014422;28;20044;-83
2022/06/27 01:53:16;;;;;;;3.78;2.30;;;;;;;18.83;100.00;157251.16;5014114;28;20060;-82
2022/06/27 01:55:42;;;;;;;3.55;2.40;;;;;;;18.76;100.00;157233.06;5019894;28;20127;-81
2022/06/27 01:58:08;;;;;;;3.35;2.20;;;;;;;18.76;100.00;157233.06;5018259;28;20060;-81
2022/06/27 02:00:34;;;;;;;4.20;2.20;;;;;;;18.79;100.00;157242.09;5018876;28;20090;-83
2022/06/27 02:03:02;;;;;;;3.80;2.00;;;;;;;18.83;100.00;157251.16;5002193;28;20037;-82
2022/06/27 02:05:34;;;;;;;5.35;2.38;;;;;;;18.94;100.00;157279.53;5025444;28;20358;-82
2022/06/27 02:08:02;;;;;;;5.15;2.67;;;;;;;18.89;100.00;157265.34;4999223;28;20032;-81
2022/06/27 02:10:28;;;;;;;2.90;2.47;;;;;;;18.95;100.00;157280.81;5031638;28;20048;-82
2022/06/27 02:12:54;;;;;;;5.38;2.30;;;;;;;18.88;100.00;157264.06;5011701;28;20037;-83
2022/06/27 02:15:20;;;;;;;3.45;1.90;;;;;;;18.84;100.00;157253.75;5015427;28;20036;-83
2022/06/27 02:17:45;;;;;;;5.25;2.30;;;;;;;18.75;100.00;157231.78;5011625;28;20174;-82
2022/06/27 02:20:13;;;;;;;3.92;2.13;;;;;;;18.79;100.00;157242.09;5018242;28;20113;-82
2022/06/27 02:22:40;;;;;;;6.65;2.45;;;;;;;18.74;100.00;157227.91;5014785;28;20507;-83
2022/06/27 02:25:06;;;;;;;2.67;2.47;;;;;;;18.79;100.00;157242.09;5000988;28;20036;-84
2022/06/27 02:27:34;;;;;;;2.75;2.22;;;;;;;18.80;100.00;157243.41;5016722;28;20044;-83
2022/06/27 02:30:00;;;;;;;3.40;2.10;;;;;;;18.73;100.00;157225.34;5033991;28;20170;-79
2022/06/27 02:32:28;;;;;;;5.40;2.55;;;;;;;18.72;100.00;157222.75;5015401;28;20041;-81
2022/06/27 02:34:56;;;;;;;4.05;2.50;;;;;;;18.65;100.00;157206.03;4999827;28;20033;-81
2022/06/27 02:37:23;;;;;;;4.28;2.30;;;;;;;18.61;100.00;157195.66;4998775;28;20043;-82
2022/06/27 02:39:49;;;;;;;5.35;2.35;;;;;;;18.48;100.00;157163.47;5001588;28;20036;-81
2022/06/27 02:42:17;;;;;;;5.43;2.20;;;;;;;18.43;100.00;157150.56;5018357;28;20413;-80
2022/06/27 02:44:46;;;;;;;4.85;2.30;;;;;;;18.36;100.00;157133.81;5017234;28;20048;-82
2022/06/27 02:47:13;;;;;;;5.82;2.08;;;;;;;18.31;100.00;157120.94;5019756;28;20035;-81
2022/06/27 02:49:39;;;;;;;5.28;2.33;;;;;;;18.40;100.00;157142.81;5012114;28;20479;-83
2022/06/27 02:52:26;;;;;;;7.25;2.42;;;;;;;18.31;100.00;157120.94;5003426;28;20098;-81
2022/06/27 02:55:03;;;;;;;4.75;2.22;;;;;;;18.24;100.00;157104.16;5033023;28;20044;-81
2022/06/27 02:57:47;;;;;;;4.05;2.00;;;;;;;18.24;100.00;157104.16;5013541;28;20037;-81
2022/06/27 03:00:14;;;;;;;3.88;2.35;;;;;;;18.19;100.00;157090.00;4998954;28;20039;-80
2022/06/27 03:02:44;;;;;;;6.78;2.25;;;;;;;18.16;100.00;157082.25;5012759;28;20033;-83
2022/06/27 03:05:26;;;;;;;4.88;2.25;;;;;;;18.08;100.00;157064.25;5013131;28;20046;-82
2022/06/27 03:07:52;;;;;;;2.40;2.13;;;;;;;17.99;100.00;157039.72;5007234;28;20048;-83
2022/06/27 03:10:18;;;;;;;3.10;1.98;;;;;;;18.02;100.00;157047.47;5017146;28;20033;-83
2022/06/27 03:12:46;;;;;;;2.03;1.80;;;;;;;17.94;100.00;157028.13;5035109;28;20044;-83
2022/06/27 03:15:13;;;;;;;4.70;2.55;;;;;;;17.77;100.00;156984.28;5001109;28;20060;-82
2022/06/27 03:17:39;;;;;;;4.55;2.33;;;;;;;17.87;100.00;157010.09;5025995;28;20067;-81
2022/06/27 03:20:23;;;;;;;6.63;2.25;;;;;;;17.88;100.00;157013.97;5011027;28;20041;-81
2022/06/27 03:22:55;;;;;;;2.53;2.13;;;;;;;17.91;100.00;157020.38;5013119;28;21610;-82
2022/06/27 03:25:21;;;;;;;7.72;2.30;;;;;;;17.87;100.00;157010.09;5034055;28;20504;-82
2022/06/27 03:27:46;;;;;;;5.88;2.20;;;;;;;17.75;100.00;156979.13;4996513;28;20037;-83
2022/06/27 03:30:12;;;;;;;5.57;2.00;;;;;;;17.65;100.00;156954.63;4996641;28;20040;-83
2022/06/27 03:32:38;;;;;;;4.53;2.15;;;;;;;17.75;100.00;156979.13;5017897;28;20110;-85
2022/06/27 03:35:08;;;;;;;5.60;1.83;;;;;;;17.71;100.00;156971.38;5013209;28;20028;-81
2022/06/27 03:37:35;;;;;;;6.93;2.20;;;;;;;17.58;100.00;156937.91;5008707;28;20433;-80
2022/06/27 03:40:01;;;;;;;5.63;2.30;;;;;;;17.56;100.00;156932.75;5020701;28;20055;-82
2022/06/27 03:42:30;;;;;;;5.35;2.50;;;;;;;17.44;100.00;156901.81;5018809;28;20037;-77
2022/06/27 03:44:56;;;;;;;4.53;2.40;;;;;;;17.26;100.00;156856.75;5030681;28;21052;-79
2022/06/27 03:47:21;;;;;;;5.75;2.53;;;;;;;17.08;100.00;156811.66;5019023;28;20132;-79
2022/06/27 03:50:06;;;;;;;6.78;2.95;;;;;;;16.94;100.00;156776.88;5011633;28;20047;-79
2022/06/27 03:52:33;;;;;;;9.13;3.17;;;;;;;16.75;100.00;156729.19;4997753;28;20044;-78
2022/06/27 03:54:59;;;;;;;5.90;2.70;;;;;;;16.70;100.00;156716.28;5009056;28;20496;-80
2022/06/27 03:57:24;;;;;;;10.95;3.30;;;;;;;16.57;100.00;156682.81;5012178;28;20036;-79
2022/06/27 03:59:50;;;;;;;5.15;3.40;;;;;;;16.47;100.00;156658.38;5013342;28;20102;-78
2022/06/27 04:02:16;;;;;;;10.18;3.90;;;;;;;16.47;100.00;156659.66;5012891;28;20036;-79
2022/06/27 04:04:57;;;;;;;8.90;3.63;;;;;;;16.34;100.00;156626.16;5020024;28;20031;-79
2022/06/27 04:07:23;;;;;;;8.52;3.65;;;;;;;16.25;100.00;156604.28;5015205;28;20033;-78
2022/06/27 04:09:48;;;;;;;6.60;3.83;;;;;;;16.09;100.00;156563.09;4995586;28;20496;-78
2022/06/27 04:12:14;;;;;;;6.55;3.85;;;;;;;16.00;100.00;156539.94;5016776;28;20127;-80
2022/06/27 04:14:59;;;;;;;13.32;3.90;;;;;;;15.99;100.00;156538.63;5030600;28;20036;-79
2022/06/27 04:17:44;;;;;;;9.13;4.30;;;;;;;15.97;100.00;156533.47;5046818;28;20041;-79
2022/06/27 04:20:28;;;;;;;12.05;4.57;;;;;;;16.00;100.00;156541.22;5020377;28;20127;-77
2022/06/27 04:22:58;;;;;;;13.13;4.90;;;;;;;15.94;100.00;156525.78;5005967;28;20028;-79
2022/06/27 04:25:42;;;;;;;14.40;5.55;;;;;;;15.99;100.00;156538.63;5031932;28;20029;-79
2022/06/27 04:28:09;;;;;;;19.42;5.55;;;;;;;15.88;100.00;156510.28;5018005;28;20051;-82
2022/06/27 04:30:35;;;;;;;18.40;6.03;;;;;;;15.87;100.00;156509.03;4999589;28;20044;-83
2022/06/27 04:33:02;;;;;;;14.40;6.15;;;;;;;15.90;100.00;156516.75;5001741;28;20037;-82
2022/06/27 04:35:28;;;;;;;15.15;6.00;;;;;;;15.88;100.00;156510.28;4998600;28;20065;-83
2022/06/27 04:37:54;;;;;;;10.43;5.38;;;;;;;15.86;100.00;156506.47;5025672;28;20033;-82
2022/06/27 04:40:44;;;;;;;11.57;5.50;;;;;;;15.99;100.00;156537.34;5000904;28;20037;-80
2022/06/27 04:43:11;;;;;;;11.40;5.85;;;;;;;16.08;100.00;156561.78;4999149;28;20043;-79
2022/06/27 04:45:37;;;;;;;10.32;5.18;;;;;;;15.97;100.00;156533.47;5011595;28;20389;-78
2022/06/27 04:48:14;;;;;;;14.00;5.50;;;;;;;15.95;100.00;156528.31;5012824;28;20071;-80
2022/06/27 04:50:40;;;;;;;10.50;5.80;;;;;;;15.94;100.00;156527.06;5022466;28;20064;-79
2022/06/27 04:53:06;;;;;;;10.90;6.07;;;;;;;15.95;100.00;156528.31;5017907;28;20028;-78
2022/06/27 04:55:32;;;;;;;13.75;6.22;;;;;;;16.05;100.00;156552.78;5034536;28;20044;-79
2022/06/27 04:57:58;;;;;;;13.48;6.43;;;;;;;16.15;100.00;156578.53;5001565;28;20024;-80
2022/06/27 05:00:23;;;;;;;38.17;6.65;;;;;;;16.24;100.00;156601.72;5014680;28;20393;-79
2022/06/27 05:03:08;;;;;;;10.13;5.43;;;;;;;16.39;100.00;156637.75;5019290;28;20033;-81
2022/06/27 05:05:37;;;;;;;13.70;6.05;;;;;;;16.42;100.00;156645.47;5021032;28;20061;-79
2022/06/27 05:08:04;;;;;;;11.02;5.78;;;;;;;16.51;100.00;156669.94;5016582;28;20622;-82
2022/06/27 05:10:34;;;;;;;8.35;5.75;;;;;;;16.59;100.00;156689.25;5002812;28;20420;-82
2022/06/27 05:13:00;;;;;;;10.25;5.78;;;;;;;16.61;100.00;156693.13;5014836;28;20032;-79
2022/06/27 05:15:25;;;;;;;13.15;5.55;;;;;;;16.57;100.00;156684.09;5018408;28;20040;-80
2022/06/27 05:17:51;;;;;;;11.70;6.80;;;;;;;16.72;100.00;156722.72;5019091;28;20101;-81
2022/06/27 05:20:17;;;;;;;13.27;6.30;;;;;;;16.81;100.00;156744.63;5017059;28;20033;-81
2022/06/27 05:22:42;;;;;;;9.55;5.57;;;;;;;16.82;100.00;156747.28;5019094;28;20169;-79
2022/06/27 05:25:08;;;;;;;11.55;5.72;;;;;;;16.75;100.00;156729.19;5017542;28;20139;-81
2022/06/27 05:27:35;;;;;;;13.25;5.55;;;;;;;16.87;100.00;156760.13;5006270;28;20131;-79
2022/06/27 05:30:04;;;;;;;12.70;5.80;;;;;;;16.89;100.00;156765.28;5014172;28;20405;-79
2022/06/27 05:32:31;;;;;;;13.43;5.65;;;;;;;16.97;100.00;156784.63;5028022;28;20048;-79
2022/06/27 05:34:57;;;;;;;11.60;5.50;;;;;;;17.12;100.00;156821.94;5031935;28;20093;-78
2022/06/27 05:37:24;;;;;;;7.18;4.72;;;;;;;17.16;100.00;156830.97;4997082;28;20029;-83
2022/06/27 05:39:50;;;;;;;7.18;5.22;;;;;;;17.32;100.00;156872.19;5006607;28;20049;-80
2022/06/27 05:42:17;;;;;;;9.32;5.30;;;;;;;17.43;100.00;156899.25;5019047;28;20040;-79
2022/06/27 05:44:43;;;;;;;11.52;5.50;;;;;;;17.63;100.00;156949.47;5013549;28;20131;-81
2022/06/27 05:47:09;;;;;;;9.02;5.63;;;;;;;17.60;100.00;156943.03;5001066;28;20036;-80
2022/06/27 05:49:37;;;;;;;7.95;5.15;;;;;;;17.76;100.00;156981.69;5015155;28;20344;-80
2022/06/27 05:52:03;;;;;;;8.40;5.00;;;;;;;17.81;100.00;156995.88;5036616;28;20043;-78
2022/06/27 05:54:30;;;;;;;11.60;5.68;;;;;;;17.83;100.00;156999.75;5017483;28;20108;-82
2022/06/27 05:56:56;;;;;;;14.23;5.07;;;;;;;17.98;100.00;157038.44;5008854;28;20033;-83
2022/06/27 05:59:23;;;;;;;8.38;5.85;;;;;;;17.94;100.00;157028.13;5002291;28;20060;-79
2022/06/27 06:01:51;;;;;;;11.70;5.40;;;;;;;17.89;100.00;157016.56;5002764;28;20090;-82
2022/06/27 06:04:18;;;;;;;8.20;5.18;;;;;;;17.86;100.00;157008.81;5025874;28;20041;-81
2022/06/27 06:06:44;;;;;;;9.82;5.22;;;;;;;17.92;100.00;157023.00;5017954;28;20044;-81
2022/06/27 06:09:11;;;;;;;11.13;5.05;;;;;;;17.72;100.00;156972.66;5018854;28;20040;-81
2022/06/27 06:11:38;;;;;;;13.70;5.55;;;;;;;17.80;100.00;156993.31;5013371;28;20188;-79
2022/06/27 06:14:04;;;;;;;8.20;4.93;;;;;;;17.84;100.00;157003.66;5016789;28;20029;-80
2022/06/27 06:16:31;;;;;;;8.15;5.32;;;;;;;17.74;100.00;156977.81;5001314;28;20046;-79
2022/06/27 06:18:59;;;;;;;5.47;4.95;;;;;;;17.85;100.00;157006.22;5017044;28;20039;-79
2022/06/27 06:21:25;;;;;;;7.65;5.57;;;;;;;17.83;100.00;156999.75;5013691;28;20071;-82
2022/06/27 06:23:52;;;;;;;7.05;4.72;;;;;;;17.88;100.00;157013.97;5024933;28;20650;-81
2022/06/27 06:26:19;;;;;;;9.82;5.30;;;;;;;17.83;100.00;156999.75;5001151;28;20036;-80
2022/06/27 06:28:48;;;;;;;8.85;5.10;;;;;;;17.91;100.00;157020.38;5034213;28;20041;-79
2022/06/27 06:31:21;;;;;;;9.27;5.18;;;;;;;18.11;100.00;157070.66;5017886;28;20404;-79
2022/06/27 06:33:55;;;;;;;8.90;5.03;;;;;;;18.05;100.00;157055.22;5016970;28;20347;-78
2022/06/27 06:36:22;;;;;;;6.28;5.00;;;;;;;18.15;100.00;157080.97;5016881;28;20470;-80
2022/06/27 06:38:51;;;;;;;8.77;5.20;;;;;;;18.16;100.00;157082.25;5015825;28;20041;-79
2022/06/27 06:41:18;;;;;;;9.85;5.63;;;;;;;18.18;100.00;157087.44;4998982;28;20041;-78
2022/06/27 06:43:48;;;;;;;8.75;5.13;;;;;;;18.19;100.00;157090.00;5030744;28;20067;-80
2022/06/27 06:46:35;;;;;;;5.63;5.13;;;;;;;18.26;100.00;157108.03;5029707;28;20049;-79
2022/06/27 06:49:11;;;;;;;11.00;5.30;;;;;;;18.20;100.00;157093.88;4998857;28;20122;-81
2022/06/27 06:51:39;;;;;;;8.82;5.63;;;;;;;18.27;100.00;157111.91;5006784;28;20079;-79
2022/06/27 06:54:07;;;;;;;6.30;5.30;;;;;;;18.38;100.00;157138.94;5016307;28;20119;-80
2022/06/27 06:56:34;;;;;;;7.78;6.13;;;;;;;18.41;100.00;157146.69;5031583;28;20124;-80
2022/06/27 06:59:01;;;;;;;8.50;5.22;;;;;;;18.55;100.00;157180.22;5023945;28;20174;-81
2022/06/27 07:01:28;;;;;;;7.85;6.10;;;;;;;18.69;100.00;157216.31;5018662;28;20061;-80
2022/06/27 07:03:58;;;;;;;10.00;6.05;;;;;;;18.85;100.00;157257.63;4998484;28;20064;-80
2022/06/27 07:06:26;;;;;;;11.32;6.55;;;;;;;18.88;100.00;157262.78;5023767;28;20635;-79
2022/06/27 07:08:53;;;;;;;13.70;6.35;;;;;;;19.01;100.00;157296.31;4999648;28;20067;-81
2022/06/27 07:11:21;;;;;;;12.45;6.72;;;;;;;19.04;100.00;157305.34;5008237;28;20037;-83
2022/06/27 07:13:51;;;;;;;8.10;5.68;;;;;;;19.04;100.00;157304.03;5013705;28;20048;-79
2022/06/27 07:16:18;;;;;;;10.60;6.60;;;;;;;19.25;100.00;157358.19;5046078;28;20166;-79
2022/06/27 07:18:46;;;;;;;9.52;6.00;;;;;;;19.19;100.00;157341.41;5008029;28;20040;-80
2022/06/27 07:21:19;;;;;;;11.93;7.13;;;;;;;19.19;100.00;157342.75;5020013;28;20417;-81
2022/06/27 07:23:47;;;;;;;11.88;7.38;;;;;;;19.12;100.00;157323.34;5048688;28;20103;-81
2022/06/27 07:26:14;;;;;;;9.70;6.55;;;;;;;19.08;100.00;157314.38;5000661;28;20124;-81
2022/06/27 07:28:41;;;;;;;14.73;6.70;;;;;;;19.20;100.00;157344.03;5033470;28;20401;-82
2022/06/27 07:31:11;;;;;;;12.95;7.03;;;;;;;19.26;100.00;157360.75;4997014;28;20032;-82
2022/06/27 07:33:41;;;;;;;11.68;6.82;;;;;;;19.13;100.00;157327.22;5013051;28;20041;-82
2022/06/27 07:36:11;;;;;;;9.63;6.40;;;;;;;19.13;100.00;157325.97;5046618;28;20021;-81
2022/06/27 07:38:38;;;;;;;10.18;6.90;;;;;;;19.08;100.00;157314.38;5011356;28;20072;-81
2022/06/27 07:41:07;;;;;;;10.18;6.93;;;;;;;19.15;100.00;157332.38;5006218;28;20099;-81
2022/06/27 07:43:34;;;;;;;10.57;7.70;;;;;;;19.20;100.00;157344.03;5021123;28;20063;-83
2022/06/27 07:46:01;;;;;;;10.98;7.50;;;;;;;19.23;100.00;157353.06;5033313;28;20489;-82
2022/06/27 07:48:27;;;;;;;10.85;7.32;;;;;;;19.30;100.00;157368.50;5021197;28;20032;-83
2022/06/27 07:50:55;;;;;;;13.38;6.45;;;;;;;19.29;100.00;157365.91;5015342;28;20034;-82
2022/06/27 07:53:22;;;;;;;10.20;7.20;;;;;;;19.38;100.00;157389.13;5008376;28;20043;-81
2022/06/27 07:55:52;;;;;;;12.32;7.65;;;;;;;19.42;100.00;157399.44;5003223;28;20756;-80
2022/06/27 07:58:30;;;;;;;15.50;8.75;;;;;;;19.32;100.00;157374.94;4997172;28;20493;-81
2022/06/27 08:00:58;;;;;;;10.60;7.95;;;;;;;19.25;100.00;157358.19;5017347;28;20064;-81
2022/06/27 08:03:36;;;;;;;11.52;8.25;;;;;;;19.23;100.00;157351.72;5037475;28;20033;-83
2022/06/27 08:06:05;;;;;;;10.95;9.20;;;;;;;19.16;100.00;157333.72;5027055;28;20037;-77
2022/06/27 08:08:33;;;;;;;12.73;9.00;;;;;;;19.14;100.00;157328.56;5015871;28;20043;-79
2022/06/27 08:11:00;;;;;;;11.80;8.45;;;;;;;19.12;100.00;157324.69;5017033;28;20108;-81
2022/06/27 08:13:26;;;;;;;11.00;9.10;;;;;;;19.27;100.00;157362.09;5002177;28;20041;-81
2022/06/27 08:15:53;;;;;;;12.98;9.50;;;;;;;19.48;100.00;157414.94;5015022;28;20041;-81
2022/06/27 08:18:19;;;;;;;13.43;9.27;;;;;;;19.64;100.00;157456.19;5016815;28;20033;-81
2022/06/27 08:20:48;;;;;;;14.32;8.68;;;;;;;19.71;100.00;157471.69;5030637;28;20099;-83
2022/06/27 08:23:14;;;;;;;12.77;8.95;;;;;;;19.70;100.00;157470.38;4995615;28;20078;-82
2022/06/27 08:25:41;;;;;;;12.32;8.60;;;;;;;19.67;100.00;157461.38;5012161;28;20108;-80
2022/06/27 08:28:09;;;;;;;11.80;8.32;;;;;;;19.63;100.00;157452.34;5026112;28;20040;-79
2022/06/27 08:30:37;;;;;;;16.83;8.00;;;;;;;19.45;100.00;157408.47;5031309;28;20401;-81
2022/06/27 08:33:02;;;;;;;8.52;6.20;;;;;;;19.37;100.00;157387.84;4999764;28;20057;-82
2022/06/27 08:35:29;;;;;;;12.32;6.72;;;;;;;19.30;100.00;157369.78;5025318;28;20553;-82
2022/06/27 08:37:58;;;;;;;11.05;6.28;;;;;;;19.22;100.00;157350.44;5027086;28;20037;-81
2022/06/27 08:40:26;;;;;;;13.48;6.40;;;;;;;19.22;100.00;157349.19;5015848;28;20040;-82
2022/06/27 08:42:52;;;;;;;12.95;7.68;;;;;;;19.00;100.00;157295.00;5015464;28;20044;-82
2022/06/27 08:45:20;;;;;;;8.55;6.57;;;;;;;19.03;100.00;157301.47;4997995;28;20029;-82
2022/06/27 08:47:46;;;;;;;10.18;7.50;;;;;;;19.04;100.00;157305.34;5032416;28;20511;-81
2022/06/27 08:50:14;;;;;;;14.73;7.57;;;;;;;19.01;100.00;157297.59;5003864;28;20033;-82
2022/06/27 08:52:41;;;;;;;12.85;7.63;;;;;;;19.00;100.00;157295.00;5001231;28;20032;-82
2022/06/27 08:55:09;;;;;;;11.68;7.78;;;;;;;18.99;100.00;157292.44;5019281;28;20035;-81
2022/06/27 08:57:41;;;;;;;13.68;8.63;;;;;;;18.82;100.00;157249.88;5016155;28;20028;-81
2022/06/27 09:00:12;;;;;;;12.55;9.23;;;;;;;18.84;100.00;157255.03;5009610;28;20086;-81
2022/06/27 09:02:42;;;;;;;15.82;8.82;;;;;;;18.77;100.00;157236.94;5024051;28;20030;-81
2022/06/27 09:05:26;;;;;;;17.98;9.18;;;;;;;18.84;100.00;157253.75;5017896;28;20374;-80
2022/06/27 09:07:55;;;;;;;11.32;8.25;;;;;;;18.96;100.00;157284.69;5010974;28;20060;-80
2022/06/27 09:10:32;;;;;;;14.18;8.95;;;;;;;19.00;100.00;157295.00;5009054;28;20036;-80
2022/06/27 09:13:12;;;;;;;17.17;9.40;;;;;;;19.04;100.00;157305.34;5026566;28;20037;-81
2022/06/27 09:15:40;;;;;;;18.20;9.63;;;;;;;19.16;100.00;157335.00;5032342;28;20041;-80
2022/06/27 09:18:08;;;;;;;17.42;10.18;;;;;;;19.22;100.00;157349.19;5000683;28;20721;-81
2022/06/27 09:20:54;;;;;;;13.88;9.55;;;;;;;19.26;100.00;157359.47;5010359;28;20076;-84
2022/06/27 09:23:28;;;;;;;15.35;10.30;;;;;;;19.22;100.00;157349.19;4996289;28;20079;-83
2022/06/27 09:26:05;;;;;;;13.38;9.73;;;;;;;19.40;100.00;157395.59;5001392;28;20045;-80
2022/06/27 09:28:39;;;;;;;21.02;11.38;;;;;;;19.39;100.00;157391.72;5006487;28;20040;-81
2022/06/27 09:31:27;;;;;;;23.30;11.07;;;;;;;19.42;100.00;157399.44;5002141;28;20029;-81
2022/06/27 09:34:14;;;;;;;17.08;10.77;;;;;;;19.21;100.00;157346.56;5013230;28;20458;-83
2022/06/27 09:36:48;;;;;;;26.40;11.75;;;;;;;19.15;100.00;157332.38;5019101;28;20110;-78
2022/06/27 09:39:19;;;;;;;15.60;11.07;;;;;;;19.08;100.00;157314.38;5000412;28;20040;-80
2022/06/27 09:42:14;;;;;;;15.88;12.25;;;;;;;19.15;100.00;157331.13;5002926;28;20455;-83
2022/06/27 09:44:41;;;;;;;15.85;12.07;;;;;;;19.33;100.00;157376.25;5016775;28;20033;-82
2022/06/27 09:47:18;;;;;;;14.48;11.90;;;;;;;19.71;100.00;157471.69;5020077;28;20091;-80
2022/06/27 09:49:46;;;;;;;19.67;11.02;;;;;;;19.89;100.00;157518.19;5020744;28;20033;-81
2022/06/27 09:52:14;;;;;;;14.95;11.43;;;;;;;19.95;100.00;157532.38;5002297;28;20048;-81
2022/06/27 09:54:43;;;;;;;17.20;10.20;;;;;;;20.13;100.00;157578.78;5001936;28;20081;-80
2022/06/27 09:57:11;;;;;;;14.38;10.80;;;;;;;20.72;100.00;157725.94;5021623;28;20037;-79
2022/06/27 09:59:38;;;;;;;17.33;10.40;;;;;;;21.10;100.00;157821.50;5019014;28;20064;-80
2022/06/27 10:02:05;;;;;;;22.58;11.20;;;;;;;21.22;100.00;157851.16;5002094;28;20033;-79
2022/06/27 10:04:35;;;;;;;13.68;11.10;;;;;;;21.07;100.00;157815.00;5035066;28;20029;-79
2022/06/27 10:07:03;;;;;;;14.25;10.15;;;;;;;21.11;100.00;157824.03;5033525;28;20719;-78
2022/06/27 10:09:30;;;;;;;16.05;10.75;;;;;;;21.41;100.00;157900.22;5013074;28;20503;-80
2022/06/27 10:12:36;;;;;;;17.25;12.07;;;;;;;21.35;100.00;157886.00;5007438;28;20138;-80
2022/06/27 10:15:11;;;;;;;15.70;13.02;;;;;;;20.98;100.00;157793.09;5014106;28;20037;-77
2022/06/27 10:17:38;;;;;;;16.85;12.98;;;;;;;20.93;100.00;157778.91;5030797;28;20050;-79
2022/06/27 10:20:12;;;;;;;21.38;13.88;;;;;;;20.94;100.00;157781.44;5001198;28;20033;-77
2022/06/27 10:22:39;;;;;;;21.10;14.68;;;;;;;20.86;100.00;157760.81;5008949;28;20102;-78
2022/06/27 10:25:26;;;;;;;17.02;14.38;;;;;;;20.74;100.00;157731.16;5001883;28;20037;-78
2022/06/27 10:28:07;;;;;;;21.30;15.55;;;;;;;20.78;100.00;157741.47;5030366;28;20053;-80
2022/06/27 10:30:39;;;;;;;22.55;14.73;;;;;;;20.88;100.00;157767.25;5013120;28;20115;-78
2022/06/27 10:33:26;;;;;;;23.05;14.57;;;;;;;20.93;100.00;157780.16;5013256;28;20043;-78
2022/06/27 10:35:59;;;;;;;18.90;13.75;;;;;;;21.15;100.00;157834.38;5030958;28;20416;-77
2022/06/27 10:38:43;;;;;;;20.05;12.60;;;;;;;21.34;100.00;157883.44;5016046;28;20040;-78
2022/06/27 10:41:10;;;;;;;17.80;12.98;;;;;;;21.83;100.00;158006.16;5009941;28;20120;-78
2022/06/27 10:43:39;;;;;;;15.90;12.82;;;;;;;22.05;100.00;158061.66;5008644;28;20033;-79
2022/06/27 10:46:10;;;;;;;16.92;11.73;;;;;;;22.30;100.00;158125.03;5006514;28;20037;-76
2022/06/27 10:48:47;;;;;;;16.35;11.75;;;;;;;22.74;100.00;158236.09;5000907;28;20052;-77
2022/06/27 10:51:31;;;;;;;20.23;11.80;;;;;;;22.82;100.00;158255.47;5009422;28;20098;-78
2022/06/27 10:54:06;;;;;;;15.43;11.15;;;;;;;22.93;100.00;158282.63;5007163;28;21059;-79
2022/06/27 10:56:45;;;;;;;17.00;13.48;;;;;;;22.70;99.94;158224.50;5023499;28;20049;-77
2022/06/27 10:59:14;;;;;;;17.15;13.13;;;;;;;22.52;100.00;158179.25;4998209;28;20424;-77
2022/06/27 11:01:41;;;;;;;16.67;13.10;;;;;;;22.51;100.00;158176.69;5005434;28;20041;-77
2022/06/27 11:04:07;;;;;;;20.45;13.30;;;;;;;22.17;100.00;158092.69;5008446;28;20091;-79
2022/06/27 11:06:32;;;;;;;18.98;13.93;;;;;;;21.77;100.00;157990.63;5008363;28;20504;-75
2022/06/27 11:08:58;;;;;;;16.65;14.02;;;;;;;21.47;100.00;157915.75;5011368;28;20564;-80
2022/06/27 11:11:26;;;;;;;17.65;14.60;;;;;;;21.09;100.00;157818.88;5027375;28;20029;-78
2022/06/27 11:14:00;;;;;;;19.80;15.65;;;;;;;20.90;100.00;157772.41;5012190;28;20041;-80
2022/06/27 11:16:31;;;;;;;19.77;14.70;;;;;;;20.93;100.00;157780.16;4997592;28;20044;-76
2022/06/27 11:20:04;;;;;;;23.05;14.88;;;;;;;21.33;100.00;157879.56;4992991;28;20124;-77
2022/06/27 11:21:50;;;;;;;17.58;14.55;;;;;;;22.19;100.00;158096.56;5011650;28;20040;-77